Brooklyn Heights, Ohio
Current Conditions -  °F | °C
As of 7:08 PM on Monday 20 Oct 2014 (Local Time) from KBKL Reporting Station
Moderate Rain Moderate Rain  
Wind Chill: 54°   Ceiling: 2700
Heat Index: 54°   Visibility: 8mi
Dew Point: 51°   Wind: 10mph
Humidity: 90%   Direction: 190°S
Pressure: 29.83"   Gusts: NA
Location:  41.4454°N, 81.697°W
Report Text: KBKL 202308Z 19009KT 8SM RA FEW013 BKN027 OVC035 12/11 A2983 RMK AO2 P0001 T01220106
Loading
Personal Weather Stations






























Interactive Weather Map
Tropical Storm Tracking
New forecast layout! Learn more

10-Day Weather Forecast

Advertisements
Track Severe Weather on mobile